ADDS METAR Data INFO
IDs: Format: Raw Decoded Include TAF

Data at: 1230 UTC 20 Jul 2017

METAR for:KDRT (Del Rio Intl, TX, US)
Text:KDRT 201153Z AUTO 09009KT 10SM CLR 25/22 A3009 RMK AO2 SLP170 T02500222 10283 20250 53013
Temperature: 25.0°C ( 77°F)
Dewpoint: 22.2°C ( 72°F) [RH = 84%]
Pressure (altimeter):30.09 inches Hg (1019.0 mb) [Sea level pressure: 1017.0 mb]
Winds:from the E (90 degrees) at 10 MPH (9 knots; 4.6 m/s)
Visibility:10 or more sm (16+ km)
Ceiling:at least 12,000 feet AGL
Clouds:sky clear below 12,000 feet AGL
QC Flag:automated observation with no human augmentation